createdAt,value
2023-04-19T00:01:47.141Z,75.15
2023-04-19T00:04:17.016Z,94.75
2023-04-19T00:06:47.056Z,67.55
2023-04-19T00:09:15.756Z,77.72
2023-04-19T00:11:44.537Z,72.88
2023-04-19T00:14:13.935Z,77.28
2023-04-19T00:16:43.250Z,106.35
2023-04-19T00:19:12.116Z,63.38
2023-04-19T00:21:40.905Z,63.40
2023-04-19T00:24:09.796Z,64.30
2023-04-19T00:26:38.543Z,68.40
2023-04-19T00:29:09.485Z,74.05
2023-04-19T00:31:40.800Z,70.57
2023-04-19T00:34:09.840Z,75.40
2023-04-19T00:36:38.578Z,78.35
2023-04-19T00:39:08.737Z,76.40
2023-04-19T00:41:39.857Z,72.95
2023-04-19T00:44:08.615Z,87.05
2023-04-19T00:46:38.931Z,70.93
2023-04-19T00:49:08.263Z,76.45
2023-04-19T00:51:37.604Z,71.82
2023-04-19T00:54:07.873Z,74.28
2023-04-19T00:56:37.120Z,80.20
2023-04-19T00:59:06.755Z,85.68
2023-04-19T01:01:35.593Z,90.97
2023-04-19T01:04:06.417Z,102.20
2023-04-19T01:06:40.121Z,98.68
2023-04-19T01:09:09.994Z,99.70
2023-04-19T01:11:43.354Z,116.25
2023-04-19T01:14:12.363Z,99.95
2023-04-19T01:16:43.795Z,107.95
2023-04-19T01:19:13.425Z,110.68
2023-04-19T01:21:43.472Z,106.80
2023-04-19T01:24:12.247Z,99.95
2023-04-19T01:26:40.816Z,96.88
2023-04-19T01:29:09.640Z,94.78
2023-04-19T01:31:39.468Z,103.45
2023-04-19T01:34:08.316Z,92.80
2023-04-19T01:36:37.012Z,78.68
2023-04-19T01:39:06.262Z,78.05
2023-04-19T01:41:35.060Z,62.70
2023-04-19T01:44:03.931Z,55.30
2023-04-19T01:46:32.872Z,54.00
2023-04-19T01:49:01.590Z,38.13
2023-04-19T01:51:30.456Z,41.83
2023-04-19T01:53:59.341Z,41.65
2023-04-19T01:56:28.067Z,35.45
2023-04-19T01:58:57.556Z,30.77
2023-04-19T02:01:26.667Z,36.65
2023-04-19T02:03:55.722Z,39.47
2023-04-19T02:06:25.293Z,42.53
2023-04-19T02:08:54.113Z,45.78
2023-04-19T02:11:23.198Z,51.20
2023-04-19T02:13:51.797Z,39.40
2023-04-19T02:16:20.590Z,42.38
2023-04-19T02:18:52.877Z,39.92
2023-04-19T02:21:21.583Z,36.80
2023-04-19T02:23:50.361Z,38.78
2023-04-19T02:26:19.182Z,42.95
2023-04-19T02:28:47.918Z,28.75
2023-04-19T02:31:16.633Z,38.00
2023-04-19T02:33:47.539Z,47.40
2023-04-19T02:36:16.260Z,33.60
2023-04-19T02:38:45.019Z,33.70
2023-04-19T02:41:14.835Z,30.00
2023-04-19T02:43:43.536Z,33.50
2023-04-19T02:46:14.744Z,26.48
2023-04-19T02:48:43.841Z,22.67
2023-04-19T02:51:18.704Z,22.10
2023-04-19T02:53:47.474Z,29.05
2023-04-19T02:56:17.198Z,24.42
2023-04-19T02:58:46.477Z,17.02
2023-04-19T03:01:15.369Z,23.35
2023-04-19T03:03:44.120Z,18.13
2023-04-19T03:06:13.137Z,19.33
2023-04-19T03:08:41.857Z,18.10
2023-04-19T03:11:11.822Z,25.90
2023-04-19T03:13:41.410Z,21.02
2023-04-19T03:16:10.270Z,23.63
2023-04-19T03:18:38.913Z,20.85
2023-04-19T03:21:10.269Z,14.10
2023-04-19T03:23:53.048Z,18.17
2023-04-19T03:26:22.635Z,24.15
2023-04-19T03:28:54.795Z,26.75
2023-04-19T03:31:42.966Z,24.83
2023-04-19T03:34:14.450Z,23.65
2023-04-19T03:36:46.741Z,22.83
2023-04-19T03:39:15.557Z,25.67
2023-04-19T03:41:48.175Z,21.88
2023-04-19T03:44:27.354Z,21.58
2023-04-19T03:46:56.102Z,18.63
2023-04-19T03:49:28.532Z,21.30
2023-04-19T03:52:06.023Z,24.90
2023-04-19T03:54:35.569Z,20.98
2023-04-19T03:57:06.719Z,16.20
2023-04-19T03:59:39.116Z,23.90
2023-04-19T04:02:08.736Z,19.38
2023-04-19T04:04:37.841Z,21.85
2023-04-19T04:07:07.256Z,20.50
2023-04-19T04:09:36.073Z,18.55
2023-04-19T04:12:04.996Z,24.45
2023-04-19T04:14:34.363Z,20.77
2023-04-19T04:17:03.628Z,16.73
2023-04-19T04:19:32.777Z,21.55
2023-04-19T04:22:01.696Z,22.23
2023-04-19T04:24:39.626Z,22.88
2023-04-19T04:27:22.206Z,22.27
2023-04-19T04:29:53.983Z,15.27
2023-04-19T04:32:25.272Z,15.82
2023-04-19T04:34:59.777Z,13.80
2023-04-19T04:37:37.994Z,17.85
2023-04-19T04:40:10.747Z,18.50
2023-04-19T04:42:40.305Z,15.80
2023-04-19T04:45:11.602Z,22.13
2023-04-19T04:47:42.612Z,20.65
2023-04-19T04:50:12.580Z,20.15
2023-04-19T04:52:41.328Z,19.08
2023-04-19T04:55:18.325Z,22.23
2023-04-19T04:57:46.936Z,15.60
2023-04-19T05:00:22.940Z,19.08
2023-04-19T05:03:03.903Z,34.05
2023-04-19T05:05:37.872Z,29.83
2023-04-19T05:08:07.281Z,18.98
2023-04-19T05:10:36.980Z,23.25
2023-04-19T05:13:06.387Z,23.42
2023-04-19T05:15:36.379Z,22.63
2023-04-19T05:18:05.593Z,18.05
2023-04-19T05:20:35.125Z,12.77
2023-04-19T05:23:12.422Z,23.63
2023-04-19T05:25:41.920Z,15.50
2023-04-19T05:28:11.718Z,18.42
2023-04-19T05:31:03.045Z,20.88
2023-04-19T05:33:37.000Z,18.17
2023-04-19T05:36:06.206Z,22.45
2023-04-19T05:38:38.219Z,13.43
2023-04-19T05:41:08.151Z,17.80
2023-04-19T05:43:37.106Z,19.33
2023-04-19T05:46:09.463Z,20.15
2023-04-19T05:48:38.258Z,18.42
2023-04-19T05:51:25.819Z,21.40
2023-04-19T05:54:07.671Z,21.30
2023-04-19T05:56:37.040Z,25.77
2023-04-19T05:59:05.996Z,19.25
2023-04-19T06:01:35.906Z,17.45
2023-04-19T06:04:05.191Z,27.30
2023-04-19T06:06:34.003Z,28.17
2023-04-19T06:09:03.469Z,19.35
2023-04-19T06:11:42.842Z,11.40
2023-04-19T06:16:48.675Z,24.85
2023-04-19T06:19:17.823Z,14.80
2023-04-19T06:21:47.167Z,16.25
2023-04-19T06:24:16.579Z,20.15
2023-04-19T06:26:45.695Z,19.63
2023-04-19T06:29:14.496Z,14.45
2023-04-19T06:31:43.579Z,18.42
2023-04-19T06:34:12.418Z,28.50
2023-04-19T06:36:41.337Z,12.35
2023-04-19T06:39:13.663Z,14.80
2023-04-19T06:41:42.445Z,14.48
2023-04-19T06:44:17.969Z,13.90
2023-04-19T06:46:47.108Z,17.10
2023-04-19T06:49:16.414Z,16.13
2023-04-19T06:51:46.395Z,20.45
2023-04-19T06:54:16.168Z,20.23
2023-04-19T06:56:47.784Z,15.73
2023-04-19T06:59:20.075Z,14.65
2023-04-19T07:01:49.315Z,19.58
2023-04-19T07:04:18.768Z,10.57
2023-04-19T07:06:50.792Z,13.13
2023-04-19T07:09:20.022Z,12.13
2023-04-19T07:11:49.316Z,16.98
2023-04-19T07:14:21.939Z,16.58
2023-04-19T07:16:52.739Z,14.98
2023-04-19T07:19:23.584Z,11.65
2023-04-19T07:21:52.672Z,14.48
2023-04-19T07:24:21.936Z,11.57
2023-04-19T07:26:51.419Z,13.00
2023-04-19T07:29:20.509Z,20.33
2023-04-19T07:31:52.516Z,15.18
2023-04-19T07:34:21.462Z,14.27
2023-04-19T07:36:50.991Z,23.58
2023-04-19T07:39:19.692Z,16.95
2023-04-19T07:41:48.866Z,14.82
2023-04-19T07:44:18.279Z,24.75
2023-04-19T07:46:47.497Z,35.10
2023-04-19T07:49:16.866Z,45.83
2023-04-19T07:51:45.494Z,14.80
2023-04-19T07:54:17.382Z,15.07
2023-04-19T07:56:46.539Z,20.88
2023-04-19T07:59:15.892Z,30.65
2023-04-19T08:01:45.120Z,17.90
2023-04-19T08:04:14.418Z,25.10
2023-04-19T08:06:43.751Z,19.77
2023-04-19T08:09:12.389Z,15.73
2023-04-19T08:11:44.327Z,29.48
2023-04-19T08:14:28.213Z,11.55
2023-04-19T08:19:34.502Z,13.23
2023-04-19T08:22:05.166Z,16.48
2023-04-19T08:24:34.286Z,11.57
2023-04-19T08:27:03.294Z,15.80
2023-04-19T08:29:31.636Z,17.20
2023-04-19T08:32:00.637Z,13.82
2023-04-19T08:34:29.756Z,47.15
2023-04-19T08:37:04.134Z,19.52
2023-04-19T08:39:34.675Z,17.02
2023-04-19T08:42:13.188Z,18.02
2023-04-19T08:45:13.062Z,14.98
2023-04-19T08:47:51.777Z,13.73
2023-04-19T08:50:33.625Z,9.15
2023-04-19T08:53:23.710Z,13.32
2023-04-19T09:01:06.730Z,14.27
2023-04-19T09:04:02.260Z,19.77
2023-04-19T09:06:38.213Z,16.58
2023-04-19T09:09:37.132Z,28.20
2023-04-19T09:12:27.904Z,16.67
2023-04-19T09:15:01.766Z,14.93
2023-04-19T09:17:32.516Z,13.50
2023-04-19T09:20:01.083Z,12.20
2023-04-19T09:22:29.905Z,22.85
2023-04-19T09:27:34.496Z,10.68
2023-04-19T09:30:05.077Z,14.10
2023-04-19T09:32:49.777Z,16.02
2023-04-19T09:35:19.062Z,13.05
2023-04-19T09:38:06.103Z,7.97
2023-04-19T09:40:35.405Z,16.77
2023-04-19T09:43:23.103Z,9.93
2023-04-19T09:45:53.505Z,8.93
2023-04-19T09:48:24.502Z,11.02
2023-04-19T09:51:05.029Z,14.70
2023-04-19T09:53:37.606Z,14.05
2023-04-19T09:56:07.976Z,20.80
2023-04-19T09:58:48.872Z,15.75
2023-04-19T10:01:21.828Z,24.70
2023-04-19T10:03:52.642Z,9.35
2023-04-19T10:06:40.194Z,18.40
2023-04-19T10:09:15.055Z,12.70
2023-04-19T10:11:52.133Z,16.30
2023-04-19T10:14:26.720Z,12.57
2023-04-19T10:16:57.617Z,11.65
2023-04-19T10:19:27.310Z,28.88
2023-04-19T10:21:57.450Z,14.68
2023-04-19T10:24:26.900Z,14.15
2023-04-19T10:27:04.501Z,13.63
2023-04-19T10:29:52.812Z,35.13
2023-04-19T10:32:21.728Z,15.25
2023-04-19T10:34:52.607Z,22.92
2023-04-19T10:37:27.006Z,9.68
2023-04-19T10:39:55.769Z,54.15
2023-04-19T10:42:24.419Z,12.10
2023-04-19T10:45:30.781Z,33.50
2023-04-19T10:47:59.530Z,18.40
2023-04-19T10:50:28.400Z,8.63
2023-04-19T10:52:57.200Z,21.77
2023-04-19T10:55:25.850Z,8.50
2023-04-19T10:58:08.003Z,6.15
2023-04-19T11:00:37.551Z,11.40
2023-04-19T11:03:43.338Z,17.55
2023-04-19T11:06:20.936Z,10.55
2023-04-19T11:08:49.707Z,11.52
2023-04-19T11:11:19.426Z,17.23
2023-04-19T11:13:50.567Z,15.10
2023-04-19T11:16:20.350Z,15.95
2023-04-19T11:18:51.585Z,8.80
2023-04-19T11:21:20.465Z,13.65
2023-04-19T11:23:50.942Z,12.07
2023-04-19T11:26:19.825Z,9.95
2023-04-19T11:28:48.733Z,5.38
2023-04-19T11:31:19.551Z,23.58
2023-04-19T11:33:48.486Z,5.43
2023-04-19T11:36:17.352Z,12.77
2023-04-19T11:38:53.518Z,11.43
2023-04-19T11:41:22.225Z,10.20
2023-04-19T11:43:51.068Z,18.05
2023-04-19T11:46:20.107Z,12.38
2023-04-19T11:48:55.868Z,12.15
2023-04-19T11:51:24.715Z,12.73
2023-04-19T11:53:53.347Z,17.75
2023-04-19T11:56:22.152Z,15.02
2023-04-19T11:58:51.464Z,6.93
2023-04-19T12:01:22.651Z,7.63
2023-04-19T12:03:59.489Z,10.43
2023-04-19T12:06:31.586Z,18.15
2023-04-19T12:09:00.393Z,22.75
2023-04-19T12:11:45.358Z,21.55
2023-04-19T12:14:17.197Z,39.35
2023-04-19T12:16:46.867Z,43.35
2023-04-19T12:19:20.934Z,32.92
2023-04-19T12:21:51.940Z,55.33
2023-04-19T12:24:21.138Z,26.52
2023-04-19T12:26:57.940Z,17.33
2023-04-19T12:29:28.701Z,37.80
2023-04-19T12:31:57.193Z,34.35
2023-04-19T12:34:26.104Z,43.40
2023-04-19T12:36:55.031Z,19.73
2023-04-19T12:39:24.803Z,21.35
2023-04-19T12:41:53.851Z,21.52
2023-04-19T12:44:22.997Z,18.73
2023-04-19T12:46:52.191Z,21.98
2023-04-19T12:49:21.232Z,33.83
2023-04-19T12:51:49.994Z,20.50
2023-04-19T12:54:18.793Z,127.38
2023-04-19T12:56:47.873Z,217.48
2023-04-19T12:59:17.058Z,40.92
2023-04-19T13:01:46.190Z,83.65
2023-04-19T13:04:15.284Z,46.75
2023-04-19T13:06:44.514Z,9.68
2023-04-19T13:09:14.907Z,9.75
2023-04-19T13:11:44.052Z,10.50
2023-04-19T13:14:12.784Z,11.25
2023-04-19T13:16:41.753Z,52.83
2023-04-19T13:19:12.500Z,8.73
2023-04-19T13:21:41.834Z,15.27
2023-04-19T13:24:14.527Z,9.70
2023-04-19T13:26:53.716Z,14.13
2023-04-19T13:29:30.813Z,16.30
2023-04-19T13:32:20.710Z,20.13
2023-04-19T13:34:58.469Z,45.22
2023-04-19T13:37:37.596Z,24.58
2023-04-19T13:40:25.866Z,18.15
2023-04-19T13:43:08.441Z,16.98
2023-04-19T13:45:45.591Z,16.77
2023-04-19T13:48:22.026Z,12.52
2023-04-19T13:51:07.150Z,17.33
2023-04-19T13:53:45.265Z,12.20
2023-04-19T13:56:31.414Z,11.38
2023-04-19T13:59:07.587Z,18.15
2023-04-19T14:01:46.510Z,23.65
2023-04-19T14:04:20.161Z,14.85
2023-04-19T14:06:50.118Z,23.73
2023-04-19T14:09:19.641Z,19.15
2023-04-19T14:11:50.218Z,27.77
2023-04-19T14:14:19.405Z,27.20
2023-04-19T14:16:48.433Z,29.80
2023-04-19T14:19:17.501Z,30.75
2023-04-19T14:21:47.152Z,29.77
2023-04-19T14:24:16.861Z,28.38
2023-04-19T14:26:48.582Z,29.40
2023-04-19T14:29:23.336Z,31.02
2023-04-19T14:31:52.418Z,30.00
2023-04-19T14:34:21.292Z,36.17
2023-04-19T14:36:51.604Z,34.72
2023-04-19T14:39:20.476Z,37.05
2023-04-19T14:41:49.109Z,31.67
2023-04-19T14:44:17.876Z,39.65
2023-04-19T14:46:46.781Z,42.30
2023-04-19T14:49:15.685Z,48.20
2023-04-19T14:51:44.936Z,71.38
2023-04-19T14:54:13.737Z,43.13
2023-04-19T14:56:42.457Z,41.20
2023-04-19T14:59:11.494Z,51.20
2023-04-19T15:01:40.515Z,67.35
2023-04-19T15:04:09.734Z,219.52
2023-04-19T15:06:39.454Z,68.97
2023-04-19T15:09:08.531Z,99.18
2023-04-19T15:11:37.670Z,104.63
2023-04-19T15:14:06.591Z,147.07
2023-04-19T15:16:35.667Z,97.57
2023-04-19T15:19:05.715Z,58.30
2023-04-19T15:21:34.999Z,75.53
2023-04-19T15:24:04.724Z,45.30
2023-04-19T15:26:33.760Z,36.25
2023-04-19T15:29:02.569Z,32.72
2023-04-19T15:31:32.985Z,92.70
2023-04-19T15:34:05.420Z,52.15
2023-04-19T15:36:34.196Z,39.88
2023-04-19T15:39:03.059Z,35.25
2023-04-19T15:41:31.946Z,37.70
2023-04-19T15:44:00.860Z,35.63
2023-04-19T15:46:29.650Z,44.15
2023-04-19T15:48:59.103Z,53.70
2023-04-19T15:51:28.303Z,37.35
2023-04-19T15:53:57.374Z,45.20
2023-04-19T15:56:26.035Z,42.28
2023-04-19T15:58:54.975Z,37.28
2023-04-19T16:01:24.123Z,28.30
2023-04-19T16:03:53.263Z,25.33
2023-04-19T16:06:23.793Z,25.83
2023-04-19T16:08:52.477Z,27.15
2023-04-19T16:11:21.605Z,26.88
2023-04-19T16:13:50.779Z,35.95
2023-04-19T16:16:19.507Z,47.58
2023-04-19T16:18:48.338Z,40.25
2023-04-19T16:21:17.316Z,53.95
2023-04-19T16:23:46.064Z,50.20
2023-04-19T16:26:15.075Z,57.78
2023-04-19T16:28:43.759Z,69.55
2023-04-19T16:31:12.936Z,57.58
2023-04-19T16:33:41.777Z,82.68
2023-04-19T16:36:10.490Z,68.45
2023-04-19T16:38:39.347Z,64.93
2023-04-19T16:41:08.204Z,72.28
2023-04-19T16:43:37.854Z,97.38
2023-04-19T16:46:08.093Z,77.32
2023-04-19T16:48:37.003Z,103.25
2023-04-19T16:51:05.915Z,65.68
2023-04-19T16:53:35.165Z,95.53
2023-04-19T16:56:04.619Z,74.30
2023-04-19T16:58:33.448Z,66.00
2023-04-19T17:01:03.521Z,67.10
2023-04-19T17:03:32.826Z,71.38
2023-04-19T17:06:02.667Z,68.85
2023-04-19T17:08:31.838Z,78.18
2023-04-19T17:11:00.900Z,63.30
2023-04-19T17:13:29.937Z,61.65
2023-04-19T17:15:58.882Z,54.38
2023-04-19T17:18:27.746Z,59.85
2023-04-19T17:20:56.787Z,53.53
2023-04-19T17:23:25.638Z,47.42
2023-04-19T17:25:54.588Z,49.08
2023-04-19T17:28:23.700Z,59.65
2023-04-19T17:30:52.379Z,45.10
2023-04-19T17:33:21.728Z,51.92
2023-04-19T17:35:50.616Z,47.47
2023-04-19T17:38:19.716Z,50.70
2023-04-19T17:40:48.440Z,46.75
2023-04-19T17:43:17.761Z,45.30
2023-04-19T17:45:46.687Z,45.92
2023-04-19T17:48:16.295Z,40.55
2023-04-19T17:50:45.194Z,43.67
2023-04-19T17:53:14.241Z,38.65
2023-04-19T17:55:45.254Z,35.33
2023-04-19T17:58:14.057Z,39.30
2023-04-19T18:00:42.869Z,38.83
2023-04-19T18:03:12.430Z,35.28
2023-04-19T18:05:41.753Z,30.67
2023-04-19T18:08:10.817Z,30.88
2023-04-19T18:10:39.659Z,28.48
2023-04-19T18:13:08.338Z,31.52
2023-04-19T18:15:37.376Z,34.38
2023-04-19T18:18:06.370Z,27.60
2023-04-19T18:20:35.040Z,27.52
2023-04-19T18:23:04.240Z,33.20
2023-04-19T18:25:36.039Z,34.78
2023-04-19T18:28:05.454Z,34.13
2023-04-19T18:30:34.562Z,28.17
2023-04-19T18:33:03.326Z,24.80
2023-04-19T18:35:32.470Z,28.80
2023-04-19T18:38:01.052Z,22.92
2023-04-19T18:40:29.753Z,22.60
2023-04-19T18:42:58.535Z,28.92
2023-04-19T18:45:27.258Z,29.17
2023-04-19T18:47:56.767Z,26.98
2023-04-19T18:50:25.776Z,24.33
2023-04-19T18:52:54.570Z,33.72
2023-04-19T18:55:26.394Z,33.78
2023-04-19T18:57:55.074Z,24.27
2023-04-19T19:00:23.951Z,21.80
2023-04-19T19:02:53.091Z,25.60
2023-04-19T19:05:22.246Z,21.63
2023-04-19T19:07:51.447Z,20.58
2023-04-19T19:10:22.661Z,22.42
2023-04-19T19:13:02.964Z,24.65
2023-04-19T19:15:31.713Z,29.98
2023-04-19T19:18:00.669Z,24.60
2023-04-19T19:20:29.516Z,23.38
2023-04-19T19:22:58.377Z,23.08
2023-04-19T19:25:27.081Z,23.25
2023-04-19T19:28:06.974Z,24.42
2023-04-19T19:30:40.476Z,27.02
2023-04-19T19:33:09.226Z,26.48
2023-04-19T19:35:39.665Z,23.20
2023-04-19T19:38:08.598Z,42.22
2023-04-19T19:40:59.022Z,23.15
2023-04-19T19:43:26.281Z,23.20
2023-04-19T19:45:55.491Z,25.52
2023-04-19T19:48:25.467Z,28.05
2023-04-19T19:51:27.013Z,19.83
2023-04-19T19:53:43.144Z,23.17
2023-04-19T19:56:18.995Z,25.60
2023-04-19T19:58:52.088Z,32.05
2023-04-19T20:01:22.917Z,23.88
2023-04-19T20:03:52.374Z,24.27
2023-04-19T20:08:53.072Z,27.27
2023-04-19T20:11:22.096Z,20.95
2023-04-19T20:13:51.338Z,24.85
2023-04-19T20:16:20.548Z,24.10
2023-04-19T20:18:49.904Z,21.30
2023-04-19T20:21:20.295Z,41.92
2023-04-19T20:23:49.160Z,24.45
2023-04-19T20:26:17.886Z,24.63
2023-04-19T20:28:46.856Z,21.55
2023-04-19T20:31:15.636Z,22.63
2023-04-19T20:33:46.939Z,23.65
2023-04-19T20:36:16.963Z,25.08
2023-04-19T20:38:45.953Z,22.45
2023-04-19T20:41:14.756Z,21.83
2023-04-19T20:43:43.706Z,22.38
2023-04-19T20:46:12.479Z,20.55
2023-04-19T20:48:41.492Z,21.67
2023-04-19T20:51:10.366Z,23.52
2023-04-19T20:53:39.178Z,25.35
2023-04-19T20:56:08.052Z,20.55
2023-04-19T20:58:38.451Z,21.17
2023-04-19T21:01:07.474Z,19.98
2023-04-19T21:03:36.273Z,19.17
2023-04-19T21:06:05.297Z,21.75
2023-04-19T21:08:34.076Z,24.20
2023-04-19T21:11:02.913Z,21.67
2023-04-19T21:13:33.491Z,50.58
2023-04-19T21:16:02.098Z,25.88
2023-04-19T21:18:31.663Z,22.70
2023-04-19T21:21:00.531Z,26.85
2023-04-19T21:23:29.385Z,19.42
2023-04-19T21:25:58.024Z,23.05
2023-04-19T21:28:26.842Z,23.48
2023-04-19T21:30:56.166Z,23.08
2023-04-19T21:33:25.865Z,21.40
2023-04-19T21:35:56.906Z,23.02
2023-04-19T21:38:25.745Z,55.03
2023-04-19T21:40:54.649Z,20.08
2023-04-19T21:43:24.037Z,23.45
2023-04-19T21:45:52.789Z,20.13
2023-04-19T21:48:21.530Z,20.30
2023-04-19T21:50:50.587Z,35.08
2023-04-19T21:53:19.499Z,19.95
2023-04-19T21:55:51.707Z,23.40
2023-04-19T21:58:20.464Z,22.80
2023-04-19T22:00:50.336Z,19.15
2023-04-19T22:03:19.390Z,39.28
2023-04-19T22:05:48.406Z,34.55
2023-04-19T22:08:18.653Z,20.83
2023-04-19T22:10:47.505Z,20.58
2023-04-19T22:13:18.324Z,83.78
2023-04-19T22:15:47.177Z,27.75
2023-04-19T22:18:15.764Z,117.95
2023-04-19T22:20:44.443Z,26.15
2023-04-19T22:23:13.368Z,45.67
2023-04-19T22:25:42.085Z,88.85
2023-04-19T22:28:10.863Z,26.35
2023-04-19T22:30:39.485Z,40.53
2023-04-19T22:33:08.564Z,23.00
2023-04-19T22:35:37.352Z,20.30
2023-04-19T22:38:06.142Z,25.02
2023-04-19T22:40:35.029Z,30.58
2023-04-19T22:43:03.808Z,19.65
2023-04-19T22:45:32.547Z,22.05
2023-04-19T22:48:01.445Z,20.75
2023-04-19T22:50:30.521Z,22.55
2023-04-19T22:52:59.443Z,21.40
2023-04-19T22:55:28.244Z,22.52
2023-04-19T22:57:57.359Z,22.15
2023-04-19T23:00:27.178Z,20.23
2023-04-19T23:02:56.623Z,22.48
2023-04-19T23:05:28.580Z,19.65
2023-04-19T23:08:03.509Z,19.05
2023-04-19T23:10:32.486Z,26.50
2023-04-19T23:13:01.676Z,21.73
2023-04-19T23:15:30.789Z,19.83
2023-04-19T23:18:00.438Z,19.77
2023-04-19T23:20:29.230Z,19.67
2023-04-19T23:22:58.430Z,20.58
2023-04-19T23:25:27.210Z,20.60
2023-04-19T23:27:58.804Z,26.63
2023-04-19T23:30:27.863Z,20.42
2023-04-19T23:32:56.628Z,84.63
2023-04-19T23:35:25.641Z,20.38
2023-04-19T23:37:54.299Z,20.17
2023-04-19T23:40:22.943Z,23.02
2023-04-19T23:42:51.673Z,27.45
2023-04-19T23:45:20.503Z,21.70
2023-04-19T23:47:49.203Z,24.08
2023-04-19T23:50:17.819Z,21.50
2023-04-19T23:52:46.583Z,21.23
2023-04-19T23:55:15.448Z,21.42
2023-04-19T23:57:44.195Z,24.77
